sensor_id;sensor_type;location;lat;lon;timestamp;temperature;humidity
70214;DHT22;60138;55.808;37.078;2022-10-16T00:01:19;2.05;75.68
70214;DHT22;60138;55.808;37.078;2022-10-16T00:03:46;2.02;75.63
70214;DHT22;60138;55.808;37.078;2022-10-16T00:06:14;2.01;75.68
70214;DHT22;60138;55.808;37.078;2022-10-16T00:08:40;2.01;75.67
70214;DHT22;60138;55.808;37.078;2022-10-16T00:11:18;2.00;75.71
70214;DHT22;60138;55.808;37.078;2022-10-16T00:13:45;1.99;75.72
70214;DHT22;60138;55.808;37.078;2022-10-16T00:16:11;1.98;75.83
70214;DHT22;60138;55.808;37.078;2022-10-16T00:18:37;1.98;75.87
70214;DHT22;60138;55.808;37.078;2022-10-16T00:21:24;1.95;75.87
70214;DHT22;60138;55.808;37.078;2022-10-16T00:24:09;1.93;75.86
70214;DHT22;60138;55.808;37.078;2022-10-16T00:26:37;1.92;75.82
70214;DHT22;60138;55.808;37.078;2022-10-16T00:29:04;1.91;75.87
70214;DHT22;60138;55.808;37.078;2022-10-16T00:31:30;1.90;75.92
70214;DHT22;60138;55.808;37.078;2022-10-16T00:33:56;1.87;75.84
70214;DHT22;60138;55.808;37.078;2022-10-16T00:36:24;1.86;75.83
70214;DHT22;60138;55.808;37.078;2022-10-16T00:38:51;1.83;75.86
70214;DHT22;60138;55.808;37.078;2022-10-16T00:41:17;1.81;75.86
70214;DHT22;60138;55.808;37.078;2022-10-16T00:48:59;1.76;76.06
70214;DHT22;60138;55.808;37.078;2022-10-16T00:51:42;1.73;76.01
70214;DHT22;60138;55.808;37.078;2022-10-16T00:54:20;1.70;75.95
70214;DHT22;60138;55.808;37.078;2022-10-16T00:56:46;1.70;75.96
70214;DHT22;60138;55.808;37.078;2022-10-16T01:01:46;1.65;75.94
70214;DHT22;60138;55.808;37.078;2022-10-16T01:04:12;1.63;76.02
70214;DHT22;60138;55.808;37.078;2022-10-16T01:12:25;1.58;76.02
70214;DHT22;60138;55.808;37.078;2022-10-16T01:14:57;1.57;76.01
70214;DHT22;60138;55.808;37.078;2022-10-16T01:20:20;1.54;76.16
70214;DHT22;60138;55.808;37.078;2022-10-16T01:28:14;1.50;76.12
70214;DHT22;60138;55.808;37.078;2022-10-16T01:30:42;1.49;76.10
70214;DHT22;60138;55.808;37.078;2022-10-16T01:33:20;1.48;76.15
70214;DHT22;60138;55.808;37.078;2022-10-16T01:35:53;1.47;76.15
70214;DHT22;60138;55.808;37.078;2022-10-16T01:38:34;1.47;76.27
70214;DHT22;60138;55.808;37.078;2022-10-16T01:41:11;1.45;76.31
70214;DHT22;60138;55.808;37.078;2022-10-16T01:44:03;1.45;76.41
70214;DHT22;60138;55.808;37.078;2022-10-16T01:46:31;1.45;76.43
70214;DHT22;60138;55.808;37.078;2022-10-16T01:48:59;1.43;76.48
70214;DHT22;60138;55.808;37.078;2022-10-16T01:51:26;1.41;76.50
70214;DHT22;60138;55.808;37.078;2022-10-16T01:53:54;1.42;76.47
70214;DHT22;60138;55.808;37.078;2022-10-16T01:56:22;1.41;76.37
70214;DHT22;60138;55.808;37.078;2022-10-16T01:58:52;1.36;76.31
70214;DHT22;60138;55.808;37.078;2022-10-16T02:01:22;1.34;76.37
70214;DHT22;60138;55.808;37.078;2022-10-16T02:03:51;1.34;76.37
70214;DHT22;60138;55.808;37.078;2022-10-16T02:06:17;1.32;76.33
70214;DHT22;60138;55.808;37.078;2022-10-16T02:08:43;1.29;76.30
70214;DHT22;60138;55.808;37.078;2022-10-16T02:11:09;1.26;76.30
70214;DHT22;60138;55.808;37.078;2022-10-16T02:13:43;1.25;76.35
70214;DHT22;60138;55.808;37.078;2022-10-16T02:16:11;1.24;76.37
70214;DHT22;60138;55.808;37.078;2022-10-16T02:18:37;1.24;76.39
70214;DHT22;60138;55.808;37.078;2022-10-16T02:23:45;1.22;76.44
70214;DHT22;60138;55.808;37.078;2022-10-16T02:26:24;1.21;76.50
70214;DHT22;60138;55.808;37.078;2022-10-16T02:28:56;1.18;76.49
70214;DHT22;60138;55.808;37.078;2022-10-16T02:31:28;1.17;76.50
70214;DHT22;60138;55.808;37.078;2022-10-16T02:33:58;1.16;76.53
70214;DHT22;60138;55.808;37.078;2022-10-16T02:36:25;1.12;76.46
70214;DHT22;60138;55.808;37.078;2022-10-16T02:38:51;1.08;76.41
70214;DHT22;60138;55.808;37.078;2022-10-16T02:41:18;1.06;76.41
70214;DHT22;60138;55.808;37.078;2022-10-16T02:43:44;1.05;76.50
70214;DHT22;60138;55.808;37.078;2022-10-16T02:46:09;1.04;76.50
70214;DHT22;60138;55.808;37.078;2022-10-16T02:48:35;1.02;76.59
70214;DHT22;60138;55.808;37.078;2022-10-16T02:51:00;1.02;76.59
70214;DHT22;60138;55.808;37.078;2022-10-16T02:53:26;1.01;76.66
70214;DHT22;60138;55.808;37.078;2022-10-16T02:55:52;0.98;76.64
70214;DHT22;60138;55.808;37.078;2022-10-16T02:58:17;0.97;76.66
70214;DHT22;60138;55.808;37.078;2022-10-16T03:00:43;0.96;76.63
70214;DHT22;60138;55.808;37.078;2022-10-16T03:03:09;0.94;76.63
70214;DHT22;60138;55.808;37.078;2022-10-16T03:05:35;0.91;76.53
70214;DHT22;60138;55.808;37.078;2022-10-16T03:08:00;0.89;76.53
70214;DHT22;60138;55.808;37.078;2022-10-16T03:10:27;0.88;76.48
70214;DHT22;60138;55.808;37.078;2022-10-16T03:12:52;0.83;76.44
70214;DHT22;60138;55.808;37.078;2022-10-16T03:15:18;0.83;76.50
70214;DHT22;60138;55.808;37.078;2022-10-16T03:17:43;0.81;76.52
70214;DHT22;60138;55.808;37.078;2022-10-16T03:20:09;0.79;76.47
70214;DHT22;60138;55.808;37.078;2022-10-16T03:22:35;0.78;76.50
70214;DHT22;60138;55.808;37.078;2022-10-16T03:25:01;0.77;76.50
70214;DHT22;60138;55.808;37.078;2022-10-16T03:27:27;0.76;76.54
70214;DHT22;60138;55.808;37.078;2022-10-16T03:29:53;0.76;76.60
70214;DHT22;60138;55.808;37.078;2022-10-16T03:32:18;0.76;76.73
70214;DHT22;60138;55.808;37.078;2022-10-16T03:34:44;0.77;76.79
70214;DHT22;60138;55.808;37.078;2022-10-16T03:37:10;0.77;76.80
70214;DHT22;60138;55.808;37.078;2022-10-16T03:39:35;0.75;76.79
70214;DHT22;60138;55.808;37.078;2022-10-16T03:42:01;0.74;76.79
70214;DHT22;60138;55.808;37.078;2022-10-16T03:44:26;0.73;76.77
70214;DHT22;60138;55.808;37.078;2022-10-16T03:46:52;0.72;76.71
70214;DHT22;60138;55.808;37.078;2022-10-16T03:49:17;0.67;76.69
70214;DHT22;60138;55.808;37.078;2022-10-16T03:51:43;0.68;76.70
70214;DHT22;60138;55.808;37.078;2022-10-16T03:54:09;0.67;76.73
70214;DHT22;60138;55.808;37.078;2022-10-16T03:56:35;0.66;76.69
70214;DHT22;60138;55.808;37.078;2022-10-16T03:59:01;0.66;76.70
70214;DHT22;60138;55.808;37.078;2022-10-16T04:01:27;0.63;76.68
70214;DHT22;60138;55.808;37.078;2022-10-16T04:03:52;0.62;76.73
70214;DHT22;60138;55.808;37.078;2022-10-16T04:06:18;0.61;76.68
70214;DHT22;60138;55.808;37.078;2022-10-16T04:08:44;0.61;76.63
70214;DHT22;60138;55.808;37.078;2022-10-16T04:11:09;0.59;76.65
70214;DHT22;60138;55.808;37.078;2022-10-16T04:13:35;0.60;76.69
70214;DHT22;60138;55.808;37.078;2022-10-16T04:16:01;0.61;76.73
70214;DHT22;60138;55.808;37.078;2022-10-16T04:18:26;0.60;76.77
70214;DHT22;60138;55.808;37.078;2022-10-16T04:20:52;0.62;76.79
70214;DHT22;60138;55.808;37.078;2022-10-16T04:23:18;0.63;76.76
70214;DHT22;60138;55.808;37.078;2022-10-16T04:25:44;0.64;76.79
70214;DHT22;60138;55.808;37.078;2022-10-16T04:28:09;0.65;76.83
70214;DHT22;60138;55.808;37.078;2022-10-16T04:30:38;0.66;76.89
70214;DHT22;60138;55.808;37.078;2022-10-16T04:33:03;0.67;76.86
70214;DHT22;60138;55.808;37.078;2022-10-16T04:35:29;0.69;76.92
70214;DHT22;60138;55.808;37.078;2022-10-16T04:37:57;0.69;76.88
70214;DHT22;60138;55.808;37.078;2022-10-16T04:40:23;0.69;76.88
70214;DHT22;60138;55.808;37.078;2022-10-16T04:42:49;0.73;76.95
70214;DHT22;60138;55.808;37.078;2022-10-16T04:45:14;0.76;77.02
70214;DHT22;60138;55.808;37.078;2022-10-16T04:47:40;0.76;77.02
70214;DHT22;60138;55.808;37.078;2022-10-16T04:50:06;0.79;77.02
70214;DHT22;60138;55.808;37.078;2022-10-16T04:52:32;0.82;77.08
70214;DHT22;60138;55.808;37.078;2022-10-16T04:54:58;0.84;77.16
70214;DHT22;60138;55.808;37.078;2022-10-16T04:57:24;0.89;77.18
70214;DHT22;60138;55.808;37.078;2022-10-16T04:59:50;0.92;77.21
70214;DHT22;60138;55.808;37.078;2022-10-16T05:02:15;0.95;77.21
70214;DHT22;60138;55.808;37.078;2022-10-16T05:04:41;0.98;77.24
70214;DHT22;60138;55.808;37.078;2022-10-16T05:07:06;0.98;77.23
70214;DHT22;60138;55.808;37.078;2022-10-16T05:09:32;1.02;77.29
70214;DHT22;60138;55.808;37.078;2022-10-16T05:11:58;1.05;77.28
70214;DHT22;60138;55.808;37.078;2022-10-16T05:14:23;1.07;77.32
70214;DHT22;60138;55.808;37.078;2022-10-16T05:16:49;1.07;77.26
70214;DHT22;60138;55.808;37.078;2022-10-16T05:19:14;1.10;77.30
70214;DHT22;60138;55.808;37.078;2022-10-16T05:21:40;1.13;77.44
70214;DHT22;60138;55.808;37.078;2022-10-16T05:24:06;1.19;77.50
70214;DHT22;60138;55.808;37.078;2022-10-16T05:26:31;1.23;77.51
70214;DHT22;60138;55.808;37.078;2022-10-16T05:28:57;1.28;77.56
70214;DHT22;60138;55.808;37.078;2022-10-16T05:31:23;1.35;77.63
70214;DHT22;60138;55.808;37.078;2022-10-16T05:33:48;1.39;77.63
70214;DHT22;60138;55.808;37.078;2022-10-16T05:36:14;1.43;77.76
70214;DHT22;60138;55.808;37.078;2022-10-16T05:38:39;1.51;77.82
70214;DHT22;60138;55.808;37.078;2022-10-16T05:41:05;1.55;77.85
70214;DHT22;60138;55.808;37.078;2022-10-16T05:43:31;1.60;77.89
70214;DHT22;60138;55.808;37.078;2022-10-16T05:46:03;1.66;77.85
70214;DHT22;60138;55.808;37.078;2022-10-16T05:48:29;1.71;77.89
70214;DHT22;60138;55.808;37.078;2022-10-16T05:51:10;1.77;77.94
70214;DHT22;60138;55.808;37.078;2022-10-16T05:53:37;1.83;77.86
70214;DHT22;60138;55.808;37.078;2022-10-16T05:56:04;1.88;77.83
70214;DHT22;60138;55.808;37.078;2022-10-16T05:58:32;1.95;77.79
70214;DHT22;60138;55.808;37.078;2022-10-16T06:01:04;2.06;77.86
70214;DHT22;60138;55.808;37.078;2022-10-16T06:03:30;2.10;77.66
70214;DHT22;60138;55.808;37.078;2022-10-16T06:05:56;2.15;77.83
70214;DHT22;60138;55.808;37.078;2022-10-16T06:08:22;2.23;77.66
70214;DHT22;60138;55.808;37.078;2022-10-16T06:10:49;2.31;77.72
70214;DHT22;60138;55.808;37.078;2022-10-16T06:13:15;2.38;77.54
70214;DHT22;60138;55.808;37.078;2022-10-16T06:15:42;2.44;77.41
70214;DHT22;60138;55.808;37.078;2022-10-16T06:18:08;2.50;77.41
70214;DHT22;60138;55.808;37.078;2022-10-16T06:20:34;2.57;77.24
70214;DHT22;60138;55.808;37.078;2022-10-16T06:23:00;2.61;77.24
70214;DHT22;60138;55.808;37.078;2022-10-16T06:25:26;2.69;77.23
70214;DHT22;60138;55.808;37.078;2022-10-16T06:27:51;2.72;77.02
70214;DHT22;60138;55.808;37.078;2022-10-16T06:30:17;2.76;76.86
70214;DHT22;60138;55.808;37.078;2022-10-16T06:32:43;2.83;76.68
70214;DHT22;60138;55.808;37.078;2022-10-16T06:35:08;2.86;76.66
70214;DHT22;60138;55.808;37.078;2022-10-16T06:37:34;2.91;76.60
70214;DHT22;60138;55.808;37.078;2022-10-16T06:39:59;2.98;76.52
70214;DHT22;60138;55.808;37.078;2022-10-16T06:42:25;3.02;76.41
70214;DHT22;60138;55.808;37.078;2022-10-16T06:44:51;3.12;76.40
70214;DHT22;60138;55.808;37.078;2022-10-16T06:47:16;3.16;76.20
70214;DHT22;60138;55.808;37.078;2022-10-16T06:49:42;3.24;76.08
70214;DHT22;60138;55.808;37.078;2022-10-16T06:52:08;3.30;76.03
70214;DHT22;60138;55.808;37.078;2022-10-16T06:54:33;3.39;75.95
70214;DHT22;60138;55.808;37.078;2022-10-16T06:56:59;3.46;75.79
70214;DHT22;60138;55.808;37.078;2022-10-16T06:59:25;3.52;75.65
70214;DHT22;60138;55.808;37.078;2022-10-16T07:01:50;3.62;75.69
70214;DHT22;60138;55.808;37.078;2022-10-16T07:04:16;3.68;75.57
70214;DHT22;60138;55.808;37.078;2022-10-16T07:06:42;3.78;75.49
70214;DHT22;60138;55.808;37.078;2022-10-16T07:09:09;3.87;75.28
70214;DHT22;60138;55.808;37.078;2022-10-16T07:11:38;3.91;75.18
70214;DHT22;60138;55.808;37.078;2022-10-16T07:14:04;4.01;75.03
70214;DHT22;60138;55.808;37.078;2022-10-16T07:16:32;4.09;74.82
70214;DHT22;60138;55.808;37.078;2022-10-16T07:18:59;4.15;74.70
70214;DHT22;60138;55.808;37.078;2022-10-16T07:21:30;4.23;74.57
70214;DHT22;60138;55.808;37.078;2022-10-16T07:23:59;4.30;74.50
70214;DHT22;60138;55.808;37.078;2022-10-16T07:26:26;4.34;74.36
70214;DHT22;60138;55.808;37.078;2022-10-16T07:28:52;4.37;74.28
70214;DHT22;60138;55.808;37.078;2022-10-16T07:31:19;4.46;74.15
70214;DHT22;60138;55.808;37.078;2022-10-16T07:33:45;4.54;74.05
70214;DHT22;60138;55.808;37.078;2022-10-16T07:36:12;4.62;73.87
70214;DHT22;60138;55.808;37.078;2022-10-16T07:38:38;4.68;73.81
70214;DHT22;60138;55.808;37.078;2022-10-16T07:41:06;4.75;73.80
70214;DHT22;60138;55.808;37.078;2022-10-16T07:43:32;4.83;73.58
70214;DHT22;60138;55.808;37.078;2022-10-16T07:45:59;5.00;73.34
70214;DHT22;60138;55.808;37.078;2022-10-16T07:48:29;5.09;73.02
70214;DHT22;60138;55.808;37.078;2022-10-16T07:51:02;5.24;72.70
70214;DHT22;60138;55.808;37.078;2022-10-16T07:53:28;5.36;71.61
70214;DHT22;60138;55.808;37.078;2022-10-16T07:55:59;5.40;71.98
70214;DHT22;60138;55.808;37.078;2022-10-16T07:58:29;5.45;72.12
70214;DHT22;60138;55.808;37.078;2022-10-16T08:00:55;5.48;71.77
70214;DHT22;60138;55.808;37.078;2022-10-16T08:03:21;5.59;71.56
70214;DHT22;60138;55.808;37.078;2022-10-16T08:05:47;5.68;71.44
70214;DHT22;60138;55.808;37.078;2022-10-16T08:08:13;5.83;70.93
70214;DHT22;60138;55.808;37.078;2022-10-16T08:10:39;5.91;70.56
70214;DHT22;60138;55.808;37.078;2022-10-16T08:13:05;6.00;70.63
70214;DHT22;60138;55.808;37.078;2022-10-16T08:15:30;6.04;70.72
70214;DHT22;60138;55.808;37.078;2022-10-16T08:17:58;6.14;70.58
70214;DHT22;60138;55.808;37.078;2022-10-16T08:20:25;6.17;70.51
70214;DHT22;60138;55.808;37.078;2022-10-16T08:22:51;6.26;70.28
70214;DHT22;60138;55.808;37.078;2022-10-16T08:25:16;6.30;70.22
70214;DHT22;60138;55.808;37.078;2022-10-16T08:27:42;6.41;69.90
70214;DHT22;60138;55.808;37.078;2022-10-16T08:30:08;6.44;69.77
70214;DHT22;60138;55.808;37.078;2022-10-16T08:32:34;6.49;69.75
70214;DHT22;60138;55.808;37.078;2022-10-16T08:35:00;6.54;69.56
70214;DHT22;60138;55.808;37.078;2022-10-16T08:37:30;6.61;69.43
70214;DHT22;60138;55.808;37.078;2022-10-16T08:39:56;6.73;68.35
70214;DHT22;60138;55.808;37.078;2022-10-16T08:48:16;7.12;67.72
70214;DHT22;60138;55.808;37.078;2022-10-16T08:50:43;7.25;67.03
70214;DHT22;60138;55.808;37.078;2022-10-16T08:53:15;7.32;67.17
70214;DHT22;60138;55.808;37.078;2022-10-16T08:55:46;7.40;67.07
70214;DHT22;60138;55.808;37.078;2022-10-16T08:58:17;7.47;66.75
70214;DHT22;60138;55.808;37.078;2022-10-16T09:00:46;7.54;66.41
70214;DHT22;60138;55.808;37.078;2022-10-16T09:03:29;7.55;66.26
70214;DHT22;60138;55.808;37.078;2022-10-16T09:14:14;8.05;65.24
70214;DHT22;60138;55.808;37.078;2022-10-16T09:16:51;8.12;64.37
70214;DHT22;60138;55.808;37.078;2022-10-16T09:19:37;8.20;63.98
70214;DHT22;60138;55.808;37.078;2022-10-16T09:22:13;8.22;63.98
70214;DHT22;60138;55.808;37.078;2022-10-16T09:24:39;8.32;63.57
70214;DHT22;60138;55.808;37.078;2022-10-16T09:27:09;8.48;63.18
70214;DHT22;60138;55.808;37.078;2022-10-16T09:29:35;8.55;63.48
70214;DHT22;60138;55.808;37.078;2022-10-16T09:32:14;8.70;63.37
70214;DHT22;60138;55.808;37.078;2022-10-16T09:34:52;8.72;62.73
70214;DHT22;60138;55.808;37.078;2022-10-16T09:37:21;8.83;61.97
70214;DHT22;60138;55.808;37.078;2022-10-16T09:39:52;8.87;60.61
70214;DHT22;60138;55.808;37.078;2022-10-16T09:44:50;8.96;61.78
70214;DHT22;60138;55.808;37.078;2022-10-16T09:47:28;9.03;62.70
70214;DHT22;60138;55.808;37.078;2022-10-16T09:49:56;9.10;61.16
70214;DHT22;60138;55.808;37.078;2022-10-16T09:52:23;9.08;59.57
70214;DHT22;60138;55.808;37.078;2022-10-16T09:57:23;9.16;58.98
70214;DHT22;60138;55.808;37.078;2022-10-16T09:59:51;9.20;59.51
70214;DHT22;60138;55.808;37.078;2022-10-16T10:02:19;9.25;59.47
70214;DHT22;60138;55.808;37.078;2022-10-16T10:04:51;9.26;60.02
70214;DHT22;60138;55.808;37.078;2022-10-16T10:07:53;9.22;60.47
70214;DHT22;60138;55.808;37.078;2022-10-16T10:10:22;9.23;60.43
70214;DHT22;60138;55.808;37.078;2022-10-16T10:12:48;9.26;60.66
70214;DHT22;60138;55.808;37.078;2022-10-16T10:15:15;9.27;60.49
70214;DHT22;60138;55.808;37.078;2022-10-16T10:17:55;9.33;59.37
70214;DHT22;60138;55.808;37.078;2022-10-16T10:20:33;9.34;59.31
70214;DHT22;60138;55.808;37.078;2022-10-16T10:22:58;9.38;59.92
70214;DHT22;60138;55.808;37.078;2022-10-16T10:28:19;9.51;60.38
70214;DHT22;60138;55.808;37.078;2022-10-16T10:36:27;9.56;57.74
70214;DHT22;60138;55.808;37.078;2022-10-16T10:38:58;9.60;58.51
70214;DHT22;60138;55.808;37.078;2022-10-16T10:44:53;9.56;58.73
70214;DHT22;60138;55.808;37.078;2022-10-16T10:52:48;9.72;58.94
70214;DHT22;60138;55.808;37.078;2022-10-16T11:01:07;9.99;59.71
70214;DHT22;60138;55.808;37.078;2022-10-16T11:04:07;10.04;57.44
70214;DHT22;60138;55.808;37.078;2022-10-16T11:06:40;10.07;58.83
70214;DHT22;60138;55.808;37.078;2022-10-16T11:11:41;10.07;59.16
70214;DHT22;60138;55.808;37.078;2022-10-16T11:16:58;10.04;58.29
70214;DHT22;60138;55.808;37.078;2022-10-16T11:19:41;10.04;58.90
70214;DHT22;60138;55.808;37.078;2022-10-16T11:24:51;10.12;58.19
70214;DHT22;60138;55.808;37.078;2022-10-16T11:27:40;10.21;57.27
70214;DHT22;60138;55.808;37.078;2022-10-16T11:30:16;10.35;58.05
70214;DHT22;60138;55.808;37.078;2022-10-16T11:35:21;10.46;58.14
70214;DHT22;60138;55.808;37.078;2022-10-16T11:37:49;10.50;53.33
70214;DHT22;60138;55.808;37.078;2022-10-16T11:40:38;10.63;57.85
70214;DHT22;60138;55.808;37.078;2022-10-16T11:43:23;10.65;56.40
70214;DHT22;60138;55.808;37.078;2022-10-16T11:45:58;10.67;56.74
70214;DHT22;60138;55.808;37.078;2022-10-16T11:48:36;10.71;57.14
70214;DHT22;60138;55.808;37.078;2022-10-16T11:56:40;10.85;56.86
70214;DHT22;60138;55.808;37.078;2022-10-16T12:04:36;11.02;56.25
70214;DHT22;60138;55.808;37.078;2022-10-16T12:07:10;11.12;57.17
70214;DHT22;60138;55.808;37.078;2022-10-16T12:09:39;11.29;53.24
70214;DHT22;60138;55.808;37.078;2022-10-16T12:12:27;11.44;56.34
70214;DHT22;60138;55.808;37.078;2022-10-16T12:17:38;11.86;53.13
70214;DHT22;60138;55.808;37.078;2022-10-16T12:25:26;12.23;54.65
70214;DHT22;60138;55.808;37.078;2022-10-16T12:28:00;12.27;55.46
70214;DHT22;60138;55.808;37.078;2022-10-16T12:30:29;12.45;53.65
70214;DHT22;60138;55.808;37.078;2022-10-16T12:32:57;12.41;54.56
70214;DHT22;60138;55.808;37.078;2022-10-16T12:35:30;12.65;54.42
70214;DHT22;60138;55.808;37.078;2022-10-16T12:38:08;12.95;53.66
70214;DHT22;60138;55.808;37.078;2022-10-16T12:40:39;13.12;53.01
70214;DHT22;60138;55.808;37.078;2022-10-16T12:45:46;13.16;54.04
70214;DHT22;60138;55.808;37.078;2022-10-16T12:48:20;13.12;54.40
70214;DHT22;60138;55.808;37.078;2022-10-16T12:50:46;13.11;54.07
70214;DHT22;60138;55.808;37.078;2022-10-16T12:53:24;13.07;53.64
70214;DHT22;60138;55.808;37.078;2022-10-16T12:56:09;12.95;55.42
70214;DHT22;60138;55.808;37.078;2022-10-16T12:58:50;12.89;53.99
70214;DHT22;60138;55.808;37.078;2022-10-16T13:07:06;12.43;53.24
70214;DHT22;60138;55.808;37.078;2022-10-16T13:18:22;11.75;55.16
70214;DHT22;60138;55.808;37.078;2022-10-16T13:21:08;11.66;54.39
70214;DHT22;60138;55.808;37.078;2022-10-16T13:28:41;11.36;56.01
70214;DHT22;60138;55.808;37.078;2022-10-16T13:31:15;11.25;55.07
70214;DHT22;60138;55.808;37.078;2022-10-16T13:33:46;11.13;55.29
70214;DHT22;60138;55.808;37.078;2022-10-16T13:36:22;11.03;55.54
70214;DHT22;60138;55.808;37.078;2022-10-16T13:38:48;10.93;55.82
70214;DHT22;60138;55.808;37.078;2022-10-16T13:41:18;10.82;55.83
70214;DHT22;60138;55.808;37.078;2022-10-16T13:43:50;10.70;55.80
70214;DHT22;60138;55.808;37.078;2022-10-16T13:46:22;10.60;56.13
70214;DHT22;60138;55.808;37.078;2022-10-16T13:49:05;10.51;56.23
70214;DHT22;60138;55.808;37.078;2022-10-16T13:51:32;10.36;56.77
70214;DHT22;60138;55.808;37.078;2022-10-16T13:53:58;10.23;57.18
70214;DHT22;60138;55.808;37.078;2022-10-16T13:56:32;10.09;57.31
70214;DHT22;60138;55.808;37.078;2022-10-16T13:59:05;9.97;57.47
70214;DHT22;60138;55.808;37.078;2022-10-16T14:01:31;9.85;57.73
70214;DHT22;60138;55.808;37.078;2022-10-16T14:04:07;9.74;57.45
70214;DHT22;60138;55.808;37.078;2022-10-16T14:06:35;9.65;57.84
70214;DHT22;60138;55.808;37.078;2022-10-16T14:11:27;9.47;58.21
70214;DHT22;60138;55.808;37.078;2022-10-16T14:13:53;9.40;58.63
70214;DHT22;60138;55.808;37.078;2022-10-16T14:16:27;9.32;59.04
70214;DHT22;60138;55.808;37.078;2022-10-16T14:19:04;9.21;59.03
70214;DHT22;60138;55.808;37.078;2022-10-16T14:21:30;9.12;59.25
70214;DHT22;60138;55.808;37.078;2022-10-16T14:23:56;9.03;59.40
70214;DHT22;60138;55.808;37.078;2022-10-16T14:26:24;8.93;59.44
70214;DHT22;60138;55.808;37.078;2022-10-16T14:29:10;8.83;59.69
70214;DHT22;60138;55.808;37.078;2022-10-16T14:31:36;8.74;60.15
70214;DHT22;60138;55.808;37.078;2022-10-16T14:34:03;8.64;60.29
70214;DHT22;60138;55.808;37.078;2022-10-16T14:36:29;8.56;60.47
70214;DHT22;60138;55.808;37.078;2022-10-16T14:39:05;8.48;60.51
70214;DHT22;60138;55.808;37.078;2022-10-16T14:41:33;8.39;60.93
70214;DHT22;60138;55.808;37.078;2022-10-16T14:44:02;8.31;61.08
70214;DHT22;60138;55.808;37.078;2022-10-16T14:46:38;8.22;61.54
70214;DHT22;60138;55.808;37.078;2022-10-16T14:51:40;8.08;61.78
70214;DHT22;60138;55.808;37.078;2022-10-16T14:54:08;8.04;61.74
70214;DHT22;60138;55.808;37.078;2022-10-16T14:56:42;8.01;61.89
70214;DHT22;60138;55.808;37.078;2022-10-16T14:59:16;7.99;61.78
70214;DHT22;60138;55.808;37.078;2022-10-16T15:01:43;7.97;61.83
70214;DHT22;60138;55.808;37.078;2022-10-16T15:04:11;7.90;61.87
70214;DHT22;60138;55.808;37.078;2022-10-16T15:06:37;7.89;61.92
70214;DHT22;60138;55.808;37.078;2022-10-16T15:09:03;7.84;62.06
70214;DHT22;60138;55.808;37.078;2022-10-16T15:11:31;7.81;62.12
70214;DHT22;60138;55.808;37.078;2022-10-16T15:13:57;7.75;62.25
70214;DHT22;60138;55.808;37.078;2022-10-16T15:16:23;7.72;62.29
70214;DHT22;60138;55.808;37.078;2022-10-16T15:18:49;7.70;62.33
70214;DHT22;60138;55.808;37.078;2022-10-16T15:21:28;7.65;62.20
70214;DHT22;60138;55.808;37.078;2022-10-16T15:23:55;7.61;62.31
70214;DHT22;60138;55.808;37.078;2022-10-16T15:26:21;7.54;62.44
70214;DHT22;60138;55.808;37.078;2022-10-16T15:28:46;7.49;62.63
70214;DHT22;60138;55.808;37.078;2022-10-16T15:31:12;7.42;62.83
70214;DHT22;60138;55.808;37.078;2022-10-16T15:33:37;7.38;63.03
70214;DHT22;60138;55.808;37.078;2022-10-16T15:36:03;7.32;63.21
70214;DHT22;60138;55.808;37.078;2022-10-16T15:38:30;7.27;63.38
70214;DHT22;60138;55.808;37.078;2022-10-16T15:40:56;7.22;63.57
70214;DHT22;60138;55.808;37.078;2022-10-16T15:43:22;7.15;63.79
70214;DHT22;60138;55.808;37.078;2022-10-16T15:46:04;7.11;64.05
70214;DHT22;60138;55.808;37.078;2022-10-16T15:48:31;7.05;64.11
70214;DHT22;60138;55.808;37.078;2022-10-16T15:50:57;7.02;64.17
70214;DHT22;60138;55.808;37.078;2022-10-16T15:53:22;6.97;64.36
70214;DHT22;60138;55.808;37.078;2022-10-16T15:55:48;6.93;64.42
70214;DHT22;60138;55.808;37.078;2022-10-16T15:58:14;6.93;64.63
70214;DHT22;60138;55.808;37.078;2022-10-16T16:00:39;6.91;64.56
70214;DHT22;60138;55.808;37.078;2022-10-16T16:03:05;6.90;64.63
70214;DHT22;60138;55.808;37.078;2022-10-16T16:05:31;6.94;64.56
70214;DHT22;60138;55.808;37.078;2022-10-16T16:07:56;6.94;64.49
70214;DHT22;60138;55.808;37.078;2022-10-16T16:10:22;6.89;64.55
70214;DHT22;60138;55.808;37.078;2022-10-16T16:12:49;6.86;64.61
70214;DHT22;60138;55.808;37.078;2022-10-16T16:15:15;6.85;64.72
70214;DHT22;60138;55.808;37.078;2022-10-16T16:17:40;6.85;64.67
70214;DHT22;60138;55.808;37.078;2022-10-16T16:20:07;6.86;64.66
70214;DHT22;60138;55.808;37.078;2022-10-16T16:22:32;6.83;64.82
70214;DHT22;60138;55.808;37.078;2022-10-16T16:24:58;6.80;64.89
70214;DHT22;60138;55.808;37.078;2022-10-16T16:27:24;6.76;64.82
70214;DHT22;60138;55.808;37.078;2022-10-16T16:29:49;6.73;64.82
70214;DHT22;60138;55.808;37.078;2022-10-16T16:32:15;6.67;65.01
70214;DHT22;60138;55.808;37.078;2022-10-16T16:34:41;6.64;65.19
70214;DHT22;60138;55.808;37.078;2022-10-16T16:37:06;6.59;65.30
70214;DHT22;60138;55.808;37.078;2022-10-16T16:39:32;6.61;65.38
70214;DHT22;60138;55.808;37.078;2022-10-16T16:41:57;6.63;65.34
70214;DHT22;60138;55.808;37.078;2022-10-16T16:44:23;6.61;65.25
70214;DHT22;60138;55.808;37.078;2022-10-16T16:46:49;6.60;65.47
70214;DHT22;60138;55.808;37.078;2022-10-16T16:49:15;6.64;65.39
70214;DHT22;60138;55.808;37.078;2022-10-16T16:51:41;6.63;65.26
70214;DHT22;60138;55.808;37.078;2022-10-16T16:54:08;6.66;65.31
70214;DHT22;60138;55.808;37.078;2022-10-16T16:56:34;6.67;65.22
70214;DHT22;60138;55.808;37.078;2022-10-16T16:59:00;6.68;65.25
70214;DHT22;60138;55.808;37.078;2022-10-16T17:01:27;6.65;65.24
70214;DHT22;60138;55.808;37.078;2022-10-16T17:03:55;6.63;65.21
70214;DHT22;60138;55.808;37.078;2022-10-16T17:06:24;6.64;65.34
70214;DHT22;60138;55.808;37.078;2022-10-16T17:08:50;6.64;65.43
70214;DHT22;60138;55.808;37.078;2022-10-16T17:11:21;6.61;65.46
70214;DHT22;60138;55.808;37.078;2022-10-16T17:13:48;6.63;65.36
70214;DHT22;60138;55.808;37.078;2022-10-16T17:16:15;6.67;65.33
70214;DHT22;60138;55.808;37.078;2022-10-16T17:18:41;6.71;65.22
70214;DHT22;60138;55.808;37.078;2022-10-16T17:21:08;6.76;65.15
70214;DHT22;60138;55.808;37.078;2022-10-16T17:23:36;6.79;65.14
70214;DHT22;60138;55.808;37.078;2022-10-16T17:26:11;6.83;64.53
70214;DHT22;60138;55.808;37.078;2022-10-16T17:28:37;6.87;64.72
70214;DHT22;60138;55.808;37.078;2022-10-16T17:31:16;6.84;64.67
70214;DHT22;60138;55.808;37.078;2022-10-16T17:33:43;6.84;64.72
70214;DHT22;60138;55.808;37.078;2022-10-16T17:36:10;6.83;64.66
70214;DHT22;60138;55.808;37.078;2022-10-16T17:38:36;6.84;64.41
70214;DHT22;60138;55.808;37.078;2022-10-16T17:41:22;6.83;64.35
70214;DHT22;60138;55.808;37.078;2022-10-16T17:43:49;6.85;64.34